sensor_id;sensor_type;location;lat;lon;timestamp;temperature;humidity
27506;DHT22;14939;43.596;1.320;2022-07-10T00:01:48;22.90;34.70
27506;DHT22;14939;43.596;1.320;2022-07-10T00:04:14;22.80;34.90
27506;DHT22;14939;43.596;1.320;2022-07-10T00:06:39;22.70;35.20
27506;DHT22;14939;43.596;1.320;2022-07-10T00:09:15;22.70;35.40
27506;DHT22;14939;43.596;1.320;2022-07-10T00:11:41;22.60;35.70
27506;DHT22;14939;43.596;1.320;2022-07-10T00:14:07;22.50;36.00
27506;DHT22;14939;43.596;1.320;2022-07-10T00:16:33;22.50;36.30
27506;DHT22;14939;43.596;1.320;2022-07-10T00:18:59;22.40;36.40
27506;DHT22;14939;43.596;1.320;2022-07-10T00:21:24;22.40;36.60
27506;DHT22;14939;43.596;1.320;2022-07-10T00:23:50;22.40;37.30
27506;DHT22;14939;43.596;1.320;2022-07-10T00:26:16;22.30;36.90
27506;DHT22;14939;43.596;1.320;2022-07-10T00:28:41;22.30;37.00
27506;DHT22;14939;43.596;1.320;2022-07-10T00:31:07;22.30;37.10
27506;DHT22;14939;43.596;1.320;2022-07-10T00:33:36;22.30;37.10
27506;DHT22;14939;43.596;1.320;2022-07-10T00:36:03;22.20;37.40
27506;DHT22;14939;43.596;1.320;2022-07-10T00:38:30;22.20;37.60
27506;DHT22;14939;43.596;1.320;2022-07-10T00:40:56;22.10;37.80
27506;DHT22;14939;43.596;1.320;2022-07-10T00:43:22;22.00;38.10
27506;DHT22;14939;43.596;1.320;2022-07-10T00:45:48;22.00;38.50
27506;DHT22;14939;43.596;1.320;2022-07-10T00:48:14;21.90;38.70
27506;DHT22;14939;43.596;1.320;2022-07-10T00:50:44;21.90;39.00
27506;DHT22;14939;43.596;1.320;2022-07-10T00:53:11;21.80;39.00
27506;DHT22;14939;43.596;1.320;2022-07-10T00:55:39;21.80;39.10
27506;DHT22;14939;43.596;1.320;2022-07-10T00:58:07;21.80;39.20
27506;DHT22;14939;43.596;1.320;2022-07-10T01:00:34;21.80;39.40
27506;DHT22;14939;43.596;1.320;2022-07-10T01:03:03;21.70;39.30
27506;DHT22;14939;43.596;1.320;2022-07-10T01:05:28;21.70;39.40
27506;DHT22;14939;43.596;1.320;2022-07-10T01:07:54;21.70;39.40
27506;DHT22;14939;43.596;1.320;2022-07-10T01:10:20;21.70;39.50
27506;DHT22;14939;43.596;1.320;2022-07-10T01:12:46;21.70;39.60
27506;DHT22;14939;43.596;1.320;2022-07-10T01:15:12;21.60;39.70
27506;DHT22;14939;43.596;1.320;2022-07-10T01:17:38;21.60;39.70
27506;DHT22;14939;43.596;1.320;2022-07-10T01:20:08;21.60;39.70
27506;DHT22;14939;43.596;1.320;2022-07-10T01:22:36;21.50;40.00
27506;DHT22;14939;43.596;1.320;2022-07-10T01:25:02;21.50;40.20
27506;DHT22;14939;43.596;1.320;2022-07-10T01:27:29;21.40;40.50
27506;DHT22;14939;43.596;1.320;2022-07-10T01:29:55;21.40;40.70
27506;DHT22;14939;43.596;1.320;2022-07-10T01:32:21;21.30;40.70
27506;DHT22;14939;43.596;1.320;2022-07-10T01:34:46;21.30;40.80
27506;DHT22;14939;43.596;1.320;2022-07-10T01:37:12;21.30;40.90
27506;DHT22;14939;43.596;1.320;2022-07-10T01:39:38;21.20;41.50
27506;DHT22;14939;43.596;1.320;2022-07-10T01:42:04;21.10;42.10
27506;DHT22;14939;43.596;1.320;2022-07-10T01:44:30;21.00;42.90
27506;DHT22;14939;43.596;1.320;2022-07-10T01:46:55;20.90;44.20
27506;DHT22;14939;43.596;1.320;2022-07-10T01:49:21;20.90;44.20
27506;DHT22;14939;43.596;1.320;2022-07-10T01:51:47;20.80;44.30
27506;DHT22;14939;43.596;1.320;2022-07-10T01:54:12;20.70;44.70
27506;DHT22;14939;43.596;1.320;2022-07-10T01:56:38;20.70;44.90
27506;DHT22;14939;43.596;1.320;2022-07-10T01:59:04;20.70;45.80
27506;DHT22;14939;43.596;1.320;2022-07-10T02:01:30;20.50;46.10
27506;DHT22;14939;43.596;1.320;2022-07-10T02:03:57;20.40;46.90
27506;DHT22;14939;43.596;1.320;2022-07-10T02:06:41;20.30;47.20
27506;DHT22;14939;43.596;1.320;2022-07-10T02:09:06;20.20;47.60
27506;DHT22;14939;43.596;1.320;2022-07-10T02:11:32;20.20;47.90
27506;DHT22;14939;43.596;1.320;2022-07-10T02:13:58;20.10;47.80
27506;DHT22;14939;43.596;1.320;2022-07-10T02:16:23;20.10;48.20
27506;DHT22;14939;43.596;1.320;2022-07-10T02:18:49;20.00;48.50
27506;DHT22;14939;43.596;1.320;2022-07-10T02:21:14;20.00;49.20
27506;DHT22;14939;43.596;1.320;2022-07-10T02:23:40;19.90;49.60
27506;DHT22;14939;43.596;1.320;2022-07-10T02:26:06;19.80;50.40
27506;DHT22;14939;43.596;1.320;2022-07-10T02:28:32;19.70;50.90
27506;DHT22;14939;43.596;1.320;2022-07-10T02:30:58;19.70;51.50
27506;DHT22;14939;43.596;1.320;2022-07-10T02:33:24;19.60;51.80
27506;DHT22;14939;43.596;1.320;2022-07-10T02:35:50;19.60;52.60
27506;DHT22;14939;43.596;1.320;2022-07-10T02:38:15;19.50;53.10
27506;DHT22;14939;43.596;1.320;2022-07-10T02:40:41;19.50;53.50
27506;DHT22;14939;43.596;1.320;2022-07-10T02:43:07;19.50;54.20
27506;DHT22;14939;43.596;1.320;2022-07-10T02:45:33;19.40;54.20
27506;DHT22;14939;43.596;1.320;2022-07-10T02:47:58;19.40;54.60
27506;DHT22;14939;43.596;1.320;2022-07-10T02:50:24;19.30;54.90
27506;DHT22;14939;43.596;1.320;2022-07-10T02:52:49;19.30;55.40
27506;DHT22;14939;43.596;1.320;2022-07-10T02:55:15;19.20;55.70
27506;DHT22;14939;43.596;1.320;2022-07-10T02:57:41;19.20;56.00
27506;DHT22;14939;43.596;1.320;2022-07-10T03:00:07;19.20;56.40
27506;DHT22;14939;43.596;1.320;2022-07-10T03:02:33;19.10;56.70
27506;DHT22;14939;43.596;1.320;2022-07-10T03:04:58;19.10;57.00
27506;DHT22;14939;43.596;1.320;2022-07-10T03:07:24;19.10;57.30
27506;DHT22;14939;43.596;1.320;2022-07-10T03:09:50;19.00;57.70
27506;DHT22;14939;43.596;1.320;2022-07-10T03:12:15;19.00;58.10
27506;DHT22;14939;43.596;1.320;2022-07-10T03:14:41;18.90;58.50
27506;DHT22;14939;43.596;1.320;2022-07-10T03:17:07;18.90;59.10
27506;DHT22;14939;43.596;1.320;2022-07-10T03:19:32;18.90;59.60
27506;DHT22;14939;43.596;1.320;2022-07-10T03:21:59;18.90;59.70
27506;DHT22;14939;43.596;1.320;2022-07-10T03:24:25;18.80;59.90
27506;DHT22;14939;43.596;1.320;2022-07-10T03:26:50;18.80;60.50
27506;DHT22;14939;43.596;1.320;2022-07-10T03:29:16;18.70;61.60
27506;DHT22;14939;43.596;1.320;2022-07-10T03:31:42;18.60;62.30
27506;DHT22;14939;43.596;1.320;2022-07-10T03:34:08;18.60;63.00
27506;DHT22;14939;43.596;1.320;2022-07-10T03:36:33;18.60;63.20
27506;DHT22;14939;43.596;1.320;2022-07-10T03:38:59;18.60;63.30
27506;DHT22;14939;43.596;1.320;2022-07-10T03:41:25;18.60;63.80
27506;DHT22;14939;43.596;1.320;2022-07-10T03:43:50;18.50;63.90
27506;DHT22;14939;43.596;1.320;2022-07-10T03:46:16;18.50;64.20
27506;DHT22;14939;43.596;1.320;2022-07-10T03:48:41;18.50;64.80
27506;DHT22;14939;43.596;1.320;2022-07-10T03:51:07;18.40;65.20
27506;DHT22;14939;43.596;1.320;2022-07-10T03:53:33;18.40;65.20
27506;DHT22;14939;43.596;1.320;2022-07-10T03:55:58;18.40;65.40
27506;DHT22;14939;43.596;1.320;2022-07-10T03:58:27;18.40;65.60
27506;DHT22;14939;43.596;1.320;2022-07-10T04:00:52;18.30;66.30
27506;DHT22;14939;43.596;1.320;2022-07-10T04:03:18;18.30;66.40
27506;DHT22;14939;43.596;1.320;2022-07-10T04:05:44;18.30;67.20
27506;DHT22;14939;43.596;1.320;2022-07-10T04:08:09;18.30;66.90
27506;DHT22;14939;43.596;1.320;2022-07-10T04:10:35;18.30;67.20
27506;DHT22;14939;43.596;1.320;2022-07-10T04:13:02;18.20;67.60
27506;DHT22;14939;43.596;1.320;2022-07-10T04:15:27;18.20;68.00
27506;DHT22;14939;43.596;1.320;2022-07-10T04:17:53;18.20;67.40
27506;DHT22;14939;43.596;1.320;2022-07-10T04:20:19;18.20;67.40
27506;DHT22;14939;43.596;1.320;2022-07-10T04:22:46;18.20;67.40
27506;DHT22;14939;43.596;1.320;2022-07-10T04:25:12;18.20;67.00
27506;DHT22;14939;43.596;1.320;2022-07-10T04:27:38;18.20;66.60
27506;DHT22;14939;43.596;1.320;2022-07-10T04:30:04;18.30;66.10
27506;DHT22;14939;43.596;1.320;2022-07-10T04:32:30;18.30;65.50
27506;DHT22;14939;43.596;1.320;2022-07-10T04:34:57;18.30;65.40
27506;DHT22;14939;43.596;1.320;2022-07-10T04:37:23;18.40;64.80
27506;DHT22;14939;43.596;1.320;2022-07-10T04:39:48;18.40;64.60
27506;DHT22;14939;43.596;1.320;2022-07-10T04:42:14;18.40;64.60
27506;DHT22;14939;43.596;1.320;2022-07-10T04:44:40;18.40;64.20
27506;DHT22;14939;43.596;1.320;2022-07-10T04:47:06;18.40;64.90
27506;DHT22;14939;43.596;1.320;2022-07-10T04:49:32;18.30;66.10
27506;DHT22;14939;43.596;1.320;2022-07-10T04:51:58;18.20;66.90
27506;DHT22;14939;43.596;1.320;2022-07-10T04:54:24;18.30;66.10
27506;DHT22;14939;43.596;1.320;2022-07-10T04:56:49;18.30;65.70
27506;DHT22;14939;43.596;1.320;2022-07-10T04:59:15;18.40;66.30
27506;DHT22;14939;43.596;1.320;2022-07-10T05:01:41;18.40;65.50
27506;DHT22;14939;43.596;1.320;2022-07-10T05:04:07;18.30;67.60
27506;DHT22;14939;43.596;1.320;2022-07-10T05:06:34;18.30;68.20
27506;DHT22;14939;43.596;1.320;2022-07-10T05:09:00;18.40;66.30
27506;DHT22;14939;43.596;1.320;2022-07-10T05:11:26;18.40;65.70
27506;DHT22;14939;43.596;1.320;2022-07-10T05:13:52;18.50;65.50
27506;DHT22;14939;43.596;1.320;2022-07-10T05:16:18;18.60;64.90
27506;DHT22;14939;43.596;1.320;2022-07-10T05:18:44;18.60;64.40
27506;DHT22;14939;43.596;1.320;2022-07-10T05:21:10;18.70;64.40
27506;DHT22;14939;43.596;1.320;2022-07-10T05:23:38;18.90;62.90
27506;DHT22;14939;43.596;1.320;2022-07-10T05:26:04;19.00;62.30
27506;DHT22;14939;43.596;1.320;2022-07-10T05:28:30;19.10;61.10
27506;DHT22;14939;43.596;1.320;2022-07-10T05:30:55;19.20;59.70
27506;DHT22;14939;43.596;1.320;2022-07-10T05:33:21;19.30;59.10
27506;DHT22;14939;43.596;1.320;2022-07-10T05:35:47;19.40;58.10
27506;DHT22;14939;43.596;1.320;2022-07-10T05:38:12;19.50;57.70
27506;DHT22;14939;43.596;1.320;2022-07-10T05:40:38;19.50;57.60
27506;DHT22;14939;43.596;1.320;2022-07-10T05:43:04;19.50;57.40
27506;DHT22;14939;43.596;1.320;2022-07-10T05:45:30;19.60;56.80
27506;DHT22;14939;43.596;1.320;2022-07-10T05:47:56;19.70;56.60
27506;DHT22;14939;43.596;1.320;2022-07-10T05:50:22;19.70;56.30
27506;DHT22;14939;43.596;1.320;2022-07-10T05:52:48;19.80;56.20
27506;DHT22;14939;43.596;1.320;2022-07-10T05:55:13;19.80;55.60
27506;DHT22;14939;43.596;1.320;2022-07-10T05:57:40;19.80;56.00
27506;DHT22;14939;43.596;1.320;2022-07-10T06:00:06;19.90;55.30
27506;DHT22;14939;43.596;1.320;2022-07-10T06:02:33;19.90;55.20
27506;DHT22;14939;43.596;1.320;2022-07-10T06:04:58;19.90;55.00
27506;DHT22;14939;43.596;1.320;2022-07-10T06:07:25;20.00;55.40
27506;DHT22;14939;43.596;1.320;2022-07-10T06:09:50;20.00;55.00
27506;DHT22;14939;43.596;1.320;2022-07-10T06:12:16;20.00;54.80
27506;DHT22;14939;43.596;1.320;2022-07-10T06:14:42;20.10;54.40
27506;DHT22;14939;43.596;1.320;2022-07-10T06:17:08;20.10;54.70
27506;DHT22;14939;43.596;1.320;2022-07-10T06:19:34;20.20;54.10
27506;DHT22;14939;43.596;1.320;2022-07-10T06:22:00;20.30;54.60
27506;DHT22;14939;43.596;1.320;2022-07-10T06:24:44;20.30;54.30
27506;DHT22;14939;43.596;1.320;2022-07-10T06:27:10;20.30;54.00
27506;DHT22;14939;43.596;1.320;2022-07-10T06:29:36;20.40;54.50
27506;DHT22;14939;43.596;1.320;2022-07-10T06:32:02;20.50;54.10
27506;DHT22;14939;43.596;1.320;2022-07-10T06:34:28;20.50;54.20
27506;DHT22;14939;43.596;1.320;2022-07-10T06:36:54;20.50;53.90
27506;DHT22;14939;43.596;1.320;2022-07-10T06:39:20;20.60;54.30
27506;DHT22;14939;43.596;1.320;2022-07-10T06:41:46;20.60;53.80
27506;DHT22;14939;43.596;1.320;2022-07-10T06:44:11;20.70;53.40
27506;DHT22;14939;43.596;1.320;2022-07-10T06:46:37;20.80;52.60
27506;DHT22;14939;43.596;1.320;2022-07-10T06:49:03;20.80;52.90
27506;DHT22;14939;43.596;1.320;2022-07-10T06:51:29;20.90;53.50
27506;DHT22;14939;43.596;1.320;2022-07-10T06:53:55;21.00;53.30
27506;DHT22;14939;43.596;1.320;2022-07-10T06:56:22;21.00;52.90
27506;DHT22;14939;43.596;1.320;2022-07-10T06:58:47;21.10;52.50
27506;DHT22;14939;43.596;1.320;2022-07-10T07:01:13;21.10;53.20
27506;DHT22;14939;43.596;1.320;2022-07-10T07:03:39;21.20;51.60
27506;DHT22;14939;43.596;1.320;2022-07-10T07:06:04;21.30;51.00
27506;DHT22;14939;43.596;1.320;2022-07-10T07:08:30;21.30;51.10
27506;DHT22;14939;43.596;1.320;2022-07-10T07:10:56;21.40;51.10
27506;DHT22;14939;43.596;1.320;2022-07-10T07:13:22;21.50;50.90
27506;DHT22;14939;43.596;1.320;2022-07-10T07:15:47;21.60;50.50
27506;DHT22;14939;43.596;1.320;2022-07-10T07:18:24;21.70;50.50
27506;DHT22;14939;43.596;1.320;2022-07-10T07:20:58;21.90;49.90
27506;DHT22;14939;43.596;1.320;2022-07-10T07:23:42;21.90;49.40
27506;DHT22;14939;43.596;1.320;2022-07-10T07:26:08;22.10;49.20
27506;DHT22;14939;43.596;1.320;2022-07-10T07:28:34;22.10;48.80
27506;DHT22;14939;43.596;1.320;2022-07-10T07:30:59;22.20;47.80
27506;DHT22;14939;43.596;1.320;2022-07-10T07:33:25;22.20;47.30
27506;DHT22;14939;43.596;1.320;2022-07-10T07:35:51;22.20;47.00
27506;DHT22;14939;43.596;1.320;2022-07-10T07:38:16;22.20;47.70
27506;DHT22;14939;43.596;1.320;2022-07-10T07:40:43;22.30;47.00
27506;DHT22;14939;43.596;1.320;2022-07-10T07:43:08;22.40;47.60
27506;DHT22;14939;43.596;1.320;2022-07-10T07:45:34;22.50;48.00
27506;DHT22;14939;43.596;1.320;2022-07-10T07:48:00;22.60;47.20
27506;DHT22;14939;43.596;1.320;2022-07-10T07:50:32;22.70;46.00
27506;DHT22;14939;43.596;1.320;2022-07-10T07:52:58;22.70;46.60
27506;DHT22;14939;43.596;1.320;2022-07-10T07:55:24;22.80;44.50
27506;DHT22;14939;43.596;1.320;2022-07-10T07:57:56;22.90;44.70
27506;DHT22;14939;43.596;1.320;2022-07-10T08:00:23;22.90;44.90
27506;DHT22;14939;43.596;1.320;2022-07-10T08:02:50;23.00;44.70
27506;DHT22;14939;43.596;1.320;2022-07-10T08:05:16;23.20;43.50
27506;DHT22;14939;43.596;1.320;2022-07-10T08:07:51;23.20;43.00
27506;DHT22;14939;43.596;1.320;2022-07-10T08:10:19;23.30;41.80
27506;DHT22;14939;43.596;1.320;2022-07-10T08:12:46;23.40;42.00
27506;DHT22;14939;43.596;1.320;2022-07-10T08:15:15;23.40;41.90
27506;DHT22;14939;43.596;1.320;2022-07-10T08:17:41;23.60;40.90
27506;DHT22;14939;43.596;1.320;2022-07-10T08:20:10;23.70;40.20
27506;DHT22;14939;43.596;1.320;2022-07-10T08:22:36;23.90;39.70
27506;DHT22;14939;43.596;1.320;2022-07-10T08:25:02;23.90;38.90
27506;DHT22;14939;43.596;1.320;2022-07-10T08:27:28;24.10;39.10
27506;DHT22;14939;43.596;1.320;2022-07-10T08:29:54;24.20;37.70
27506;DHT22;14939;43.596;1.320;2022-07-10T08:32:20;24.30;37.80
27506;DHT22;14939;43.596;1.320;2022-07-10T08:34:45;24.50;37.20
27506;DHT22;14939;43.596;1.320;2022-07-10T08:37:11;24.60;36.60
27506;DHT22;14939;43.596;1.320;2022-07-10T08:39:37;24.50;35.90
27506;DHT22;14939;43.596;1.320;2022-07-10T08:42:06;24.50;36.30
27506;DHT22;14939;43.596;1.320;2022-07-10T08:44:32;24.60;35.20
27506;DHT22;14939;43.596;1.320;2022-07-10T08:46:58;24.70;35.80
27506;DHT22;14939;43.596;1.320;2022-07-10T08:49:27;24.80;35.40
27506;DHT22;14939;43.596;1.320;2022-07-10T08:52:08;24.90;34.90
27506;DHT22;14939;43.596;1.320;2022-07-10T08:54:38;25.00;34.80
27506;DHT22;14939;43.596;1.320;2022-07-10T08:57:04;25.10;34.10
27506;DHT22;14939;43.596;1.320;2022-07-10T08:59:31;25.10;34.10
27506;DHT22;14939;43.596;1.320;2022-07-10T09:01:57;25.30;34.10
27506;DHT22;14939;43.596;1.320;2022-07-10T09:04:25;25.30;33.40
27506;DHT22;14939;43.596;1.320;2022-07-10T09:06:52;25.50;32.00
27506;DHT22;14939;43.596;1.320;2022-07-10T09:09:19;25.50;32.20
27506;DHT22;14939;43.596;1.320;2022-07-10T09:11:45;25.50;32.20
27506;DHT22;14939;43.596;1.320;2022-07-10T09:14:14;25.70;31.50
27506;DHT22;14939;43.596;1.320;2022-07-10T09:16:44;25.70;31.30
27506;DHT22;14939;43.596;1.320;2022-07-10T09:19:27;25.80;31.40
27506;DHT22;14939;43.596;1.320;2022-07-10T09:21:59;25.90;30.70
27506;DHT22;14939;43.596;1.320;2022-07-10T09:24:38;26.10;30.00
27506;DHT22;14939;43.596;1.320;2022-07-10T09:27:04;26.20;30.40
27506;DHT22;14939;43.596;1.320;2022-07-10T09:29:31;26.40;30.00
27506;DHT22;14939;43.596;1.320;2022-07-10T09:32:01;26.40;30.00
27506;DHT22;14939;43.596;1.320;2022-07-10T09:34:46;26.50;28.40
27506;DHT22;14939;43.596;1.320;2022-07-10T09:39:58;26.40;29.20
27506;DHT22;14939;43.596;1.320;2022-07-10T09:42:28;26.70;29.20
27506;DHT22;14939;43.596;1.320;2022-07-10T09:53:08;26.90;28.50
27506;DHT22;14939;43.596;1.320;2022-07-10T09:55:37;27.10;28.10
27506;DHT22;14939;43.596;1.320;2022-07-10T09:58:09;27.20;27.40
27506;DHT22;14939;43.596;1.320;2022-07-10T10:00:40;27.40;27.60
27506;DHT22;14939;43.596;1.320;2022-07-10T10:03:10;27.30;27.20
27506;DHT22;14939;43.596;1.320;2022-07-10T10:05:38;27.30;26.70
27506;DHT22;14939;43.596;1.320;2022-07-10T10:08:56;27.30;26.20
27506;DHT22;14939;43.596;1.320;2022-07-10T10:11:26;27.50;26.50
27506;DHT22;14939;43.596;1.320;2022-07-10T10:13:52;27.60;25.40
27506;DHT22;14939;43.596;1.320;2022-07-10T10:16:22;27.70;26.10
27506;DHT22;14939;43.596;1.320;2022-07-10T10:18:50;27.70;25.30
27506;DHT22;14939;43.596;1.320;2022-07-10T10:21:36;28.00;25.60
27506;DHT22;14939;43.596;1.320;2022-07-10T10:24:02;28.00;23.90
27506;DHT22;14939;43.596;1.320;2022-07-10T10:26:28;27.90;24.10
27506;DHT22;14939;43.596;1.320;2022-07-10T10:28:59;27.80;24.70
27506;DHT22;14939;43.596;1.320;2022-07-10T10:31:27;27.90;24.70
27506;DHT22;14939;43.596;1.320;2022-07-10T10:33:57;28.00;24.20
27506;DHT22;14939;43.596;1.320;2022-07-10T10:46:55;28.40;23.90
27506;DHT22;14939;43.596;1.320;2022-07-10T10:49:50;28.40;23.90
27506;DHT22;14939;43.596;1.320;2022-07-10T10:52:17;28.40;23.00
27506;DHT22;14939;43.596;1.320;2022-07-10T10:59:58;28.40;21.70
27506;DHT22;14939;43.596;1.320;2022-07-10T11:02:33;28.40;22.80
27506;DHT22;14939;43.596;1.320;2022-07-10T11:08:00;28.40;23.00
27506;DHT22;14939;43.596;1.320;2022-07-10T11:10:30;28.50;22.80
27506;DHT22;14939;43.596;1.320;2022-07-10T11:13:03;28.70;22.90
27506;DHT22;14939;43.596;1.320;2022-07-10T11:15:30;28.60;21.40
27506;DHT22;14939;43.596;1.320;2022-07-10T11:17:56;28.70;20.90
27506;DHT22;14939;43.596;1.320;2022-07-10T11:20:23;28.70;20.60
27506;DHT22;14939;43.596;1.320;2022-07-10T11:25:54;28.80;20.30
27506;DHT22;14939;43.596;1.320;2022-07-10T11:28:54;29.00;19.80
27506;DHT22;14939;43.596;1.320;2022-07-10T11:31:25;29.00;18.50
27506;DHT22;14939;43.596;1.320;2022-07-10T11:33:55;29.10;19.10
27506;DHT22;14939;43.596;1.320;2022-07-10T11:36:23;29.10;18.70
27506;DHT22;14939;43.596;1.320;2022-07-10T11:39:04;29.10;18.70
27506;DHT22;14939;43.596;1.320;2022-07-10T11:41:31;29.20;17.90
27506;DHT22;14939;43.596;1.320;2022-07-10T11:43:58;29.20;17.30
27506;DHT22;14939;43.596;1.320;2022-07-10T11:46:26;29.40;15.70
27506;DHT22;14939;43.596;1.320;2022-07-10T11:48:53;29.40;16.30
27506;DHT22;14939;43.596;1.320;2022-07-10T11:54:03;29.60;14.80
27506;DHT22;14939;43.596;1.320;2022-07-10T11:56:34;29.60;15.40
27506;DHT22;14939;43.596;1.320;2022-07-10T11:59:04;29.70;15.60
27506;DHT22;14939;43.596;1.320;2022-07-10T12:01:32;29.60;15.50
27506;DHT22;14939;43.596;1.320;2022-07-10T12:04:05;29.70;16.80
27506;DHT22;14939;43.596;1.320;2022-07-10T12:06:32;29.90;15.80
27506;DHT22;14939;43.596;1.320;2022-07-10T12:09:36;29.80;15.30
27506;DHT22;14939;43.596;1.320;2022-07-10T12:12:05;29.80;17.00
27506;DHT22;14939;43.596;1.320;2022-07-10T12:14:32;29.90;16.30
27506;DHT22;14939;43.596;1.320;2022-07-10T12:16:59;29.90;16.60
27506;DHT22;14939;43.596;1.320;2022-07-10T12:19:38;29.90;18.00
27506;DHT22;14939;43.596;1.320;2022-07-10T12:22:07;30.10;15.20
27506;DHT22;14939;43.596;1.320;2022-07-10T12:24:33;30.20;12.20
27506;DHT22;14939;43.596;1.320;2022-07-10T12:26:59;30.10;11.70
27506;DHT22;14939;43.596;1.320;2022-07-10T12:29:29;30.10;13.00
27506;DHT22;14939;43.596;1.320;2022-07-10T12:31:57;30.20;14.00
27506;DHT22;14939;43.596;1.320;2022-07-10T12:34:40;30.20;13.30
27506;DHT22;14939;43.596;1.320;2022-07-10T12:39:37;30.40;12.50
27506;DHT22;14939;43.596;1.320;2022-07-10T12:42:06;30.60;12.70
27506;DHT22;14939;43.596;1.320;2022-07-10T12:44:42;30.40;11.40
27506;DHT22;14939;43.596;1.320;2022-07-10T12:47:12;30.30;10.10
27506;DHT22;14939;43.596;1.320;2022-07-10T12:50:01;30.30;11.30
27506;DHT22;14939;43.596;1.320;2022-07-10T13:02:50;30.80;11.00
27506;DHT22;14939;43.596;1.320;2022-07-10T13:05:30;30.80;11.10
27506;DHT22;14939;43.596;1.320;2022-07-10T13:08:19;30.80;10.90
27506;DHT22;14939;43.596;1.320;2022-07-10T13:10:57;31.00;11.40
27506;DHT22;14939;43.596;1.320;2022-07-10T13:13:26;31.00;10.70
27506;DHT22;14939;43.596;1.320;2022-07-10T13:15:52;30.90;10.60
27506;DHT22;14939;43.596;1.320;2022-07-10T13:18:24;31.10;10.50
27506;DHT22;14939;43.596;1.320;2022-07-10T13:20:52;31.30;10.50
27506;DHT22;14939;43.596;1.320;2022-07-10T13:23:19;31.30;8.70
27506;DHT22;14939;43.596;1.320;2022-07-10T13:25:48;31.10;8.40
27506;DHT22;14939;43.596;1.320;2022-07-10T13:28:14;31.00;7.20
27506;DHT22;14939;43.596;1.320;2022-07-10T13:30:42;31.10;6.90
27506;DHT22;14939;43.596;1.320;2022-07-10T13:33:08;31.10;6.90
27506;DHT22;14939;43.596;1.320;2022-07-10T13:35:35;31.10;7.40
27506;DHT22;14939;43.596;1.320;2022-07-10T13:38:04;31.40;6.50
27506;DHT22;14939;43.596;1.320;2022-07-10T13:40:35;31.40;6.90
27506;DHT22;14939;43.596;1.320;2022-07-10T13:43:01;31.40;6.70
27506;DHT22;14939;43.596;1.320;2022-07-10T13:45:27;31.30;8.00
27506;DHT22;14939;43.596;1.320;2022-07-10T13:48:02;31.20;8.00
27506;DHT22;14939;43.596;1.320;2022-07-10T13:50:28;31.10;7.50
27506;DHT22;14939;43.596;1.320;2022-07-10T13:52:54;31.10;8.10
27506;DHT22;14939;43.596;1.320;2022-07-10T13:55:19;31.20;8.10
27506;DHT22;14939;43.596;1.320;2022-07-10T13:57:45;31.50;9.00
27506;DHT22;14939;43.596;1.320;2022-07-10T14:00:11;31.70;9.80
27506;DHT22;14939;43.596;1.320;2022-07-10T14:02:38;31.80;8.70
27506;DHT22;14939;43.596;1.320;2022-07-10T14:05:04;31.60;8.80
27506;DHT22;14939;43.596;1.320;2022-07-10T14:07:30;31.40;9.40
27506;DHT22;14939;43.596;1.320;2022-07-10T14:09:55;31.50;9.40
27506;DHT22;14939;43.596;1.320;2022-07-10T14:12:22;31.50;9.40
27506;DHT22;14939;43.596;1.320;2022-07-10T14:14:47;31.80;8.60
27506;DHT22;14939;43.596;1.320;2022-07-10T14:17:13;31.60;9.50
27506;DHT22;14939;43.596;1.320;2022-07-10T14:19:39;31.70;9.40
27506;DHT22;14939;43.596;1.320;2022-07-10T14:22:07;31.70;8.70
27506;DHT22;14939;43.596;1.320;2022-07-10T14:24:32;31.80;9.40
27506;DHT22;14939;43.596;1.320;2022-07-10T14:26:58;31.90;8.20
27506;DHT22;14939;43.596;1.320;2022-07-10T14:29:24;31.80;8.50
27506;DHT22;14939;43.596;1.320;2022-07-10T14:31:50;31.80;9.00
27506;DHT22;14939;43.596;1.320;2022-07-10T14:34:20;31.80;8.20
27506;DHT22;14939;43.596;1.320;2022-07-10T14:36:52;31.80;7.70
27506;DHT22;14939;43.596;1.320;2022-07-10T14:39:18;31.60;8.20
27506;DHT22;14939;43.596;1.320;2022-07-10T14:41:44;31.80;9.30
27506;DHT22;14939;43.596;1.320;2022-07-10T14:44:09;32.10;7.90
27506;DHT22;14939;43.596;1.320;2022-07-10T14:46:35;32.20;8.00
27506;DHT22;14939;43.596;1.320;2022-07-10T14:49:01;32.20;7.60
27506;DHT22;14939;43.596;1.320;2022-07-10T14:51:27;32.50;8.50
27506;DHT22;14939;43.596;1.320;2022-07-10T14:53:54;32.60;7.20
27506;DHT22;14939;43.596;1.320;2022-07-10T14:56:20;34.00;7.30
27506;DHT22;14939;43.596;1.320;2022-07-10T14:58:46;37.70;5.00
27506;DHT22;14939;43.596;1.320;2022-07-10T15:01:12;39.70;2.10
27506;DHT22;14939;43.596;1.320;2022-07-10T15:03:40;41.40;1.00
27506;DHT22;14939;43.596;1.320;2022-07-10T15:06:06;41.00;1.00
27506;DHT22;14939;43.596;1.320;2022-07-10T15:08:31;41.30;1.00
27506;DHT22;14939;43.596;1.320;2022-07-10T15:10:57;42.60;1.00
27506;DHT22;14939;43.596;1.320;2022-07-10T15:13:27;41.30;1.00
27506;DHT22;14939;43.596;1.320;2022-07-10T15:15:53;43.00;1.00
27506;DHT22;14939;43.596;1.320;2022-07-10T15:18:19;43.30;1.00
27506;DHT22;14939;43.596;1.320;2022-07-10T15:20:45;43.60;1.00
27506;DHT22;14939;43.596;1.320;2022-07-10T15:23:11;43.70;1.00
27506;DHT22;14939;43.596;1.320;2022-07-10T15:25:38;44.00;1.00
27506;DHT22;14939;43.596;1.320;2022-07-10T15:28:08;44.10;1.00
27506;DHT22;14939;43.596;1.320;2022-07-10T15:30:35;43.70;1.00
27506;DHT22;14939;43.596;1.320;2022-07-10T15:33:02;43.70;1.00
27506;DHT22;14939;43.596;1.320;2022-07-10T15:35:29;43.70;1.00
27506;DHT22;14939;43.596;1.320;2022-07-10T15:37:54;43.30;1.00
27506;DHT22;14939;43.596;1.320;2022-07-10T15:40:20;44.40;1.00
27506;DHT22;14939;43.596;1.320;2022-07-10T15:42:46;43.90;1.00
27506;DHT22;14939;43.596;1.320;2022-07-10T15:45:11;44.00;1.00
27506;DHT22;14939;43.596;1.320;2022-07-10T15:47:37;45.60;1.00
27506;DHT22;14939;43.596;1.320;2022-07-10T15:50:04;46.20;1.00
27506;DHT22;14939;43.596;1.320;2022-07-10T15:52:30;47.20;1.00
27506;DHT22;14939;43.596;1.320;2022-07-10T15:54:55;47.60;1.00
27506;DHT22;14939;43.596;1.320;2022-07-10T15:57:21;45.70;1.00
27506;DHT22;14939;43.596;1.320;2022-07-10T15:59:47;43.70;1.00
27506;DHT22;14939;43.596;1.320;2022-07-10T16:02:13;44.00;1.00
27506;DHT22;14939;43.596;1.320;2022-07-10T16:04:39;42.00;1.00
27506;DHT22;14939;43.596;1.320;2022-07-10T16:07:05;42.10;1.00
27506;DHT22;14939;43.596;1.320;2022-07-10T16:09:31;41.40;1.00
27506;DHT22;14939;43.596;1.320;2022-07-10T16:11:57;42.00;1.00
27506;DHT22;14939;43.596;1.320;2022-07-10T16:14:22;42.40;1.00
27506;DHT22;14939;43.596;1.320;2022-07-10T16:16:48;41.90;1.00
27506;DHT22;14939;43.596;1.320;2022-07-10T16:19:14;42.20;1.00
27506;DHT22;14939;43.596;1.320;2022-07-10T16:21:40;41.90;1.00
27506;DHT22;14939;43.596;1.320;2022-07-10T16:24:06;42.00;1.00
27506;DHT22;14939;43.596;1.320;2022-07-10T16:26:32;41.30;1.00